sensor_id;sensor_type;location;lat;lon;timestamp;pressure;altitude;pressure_sealevel;temperature
61595;BMP280;47397;48.194;11.632;2022-12-18T00:00:39;97059.50;;;-5.22
61595;BMP280;47397;48.194;11.632;2022-12-18T00:01:40;97060.81;;;-5.29
61595;BMP280;47397;48.194;11.632;2022-12-18T00:02:40;97075.16;;;-5.53
61595;BMP280;47397;48.194;11.632;2022-12-18T00:03:40;97060.56;;;-5.33
61595;BMP280;47397;48.194;11.632;2022-12-18T00:04:41;97064.56;;;-5.21
61595;BMP280;47397;48.194;11.632;2022-12-18T00:05:47;97066.03;;;-5.10
61595;BMP280;47397;48.194;11.632;2022-12-18T00:06:48;97063.31;;;-4.83
61595;BMP280;47397;48.194;11.632;2022-12-18T00:07:48;97060.44;;;-5.06
61595;BMP280;47397;48.194;11.632;2022-12-18T00:08:49;97062.06;;;-5.21
61595;BMP280;47397;48.194;11.632;2022-12-18T00:09:49;97055.75;;;-5.30
61595;BMP280;47397;48.194;11.632;2022-12-18T00:10:51;97055.25;;;-5.40
61595;BMP280;47397;48.194;11.632;2022-12-18T00:11:52;97054.47;;;-5.24
61595;BMP280;47397;48.194;11.632;2022-12-18T00:12:52;97062.59;;;-5.41
61595;BMP280;47397;48.194;11.632;2022-12-18T00:13:54;97052.25;;;-5.34
61595;BMP280;47397;48.194;11.632;2022-12-18T00:14:55;97053.28;;;-5.60
61595;BMP280;47397;48.194;11.632;2022-12-18T00:15:55;97053.91;;;-5.49
61595;BMP280;47397;48.194;11.632;2022-12-18T00:16:56;97045.94;;;-5.29
61595;BMP280;47397;48.194;11.632;2022-12-18T00:17:56;97055.34;;;-5.09
61595;BMP280;47397;48.194;11.632;2022-12-18T00:19:00;97050.28;;;-5.25
61595;BMP280;47397;48.194;11.632;2022-12-18T00:20:00;97048.41;;;-5.14
61595;BMP280;47397;48.194;11.632;2022-12-18T00:21:02;97053.38;;;-5.14
61595;BMP280;47397;48.194;11.632;2022-12-18T00:22:03;97056.00;;;-4.96
61595;BMP280;47397;48.194;11.632;2022-12-18T00:23:04;97055.06;;;-5.28
61595;BMP280;47397;48.194;11.632;2022-12-18T00:24:05;97051.56;;;-5.31
61595;BMP280;47397;48.194;11.632;2022-12-18T00:25:06;97055.00;;;-5.15
61595;BMP280;47397;48.194;11.632;2022-12-18T00:26:15;97051.31;;;-5.07
61595;BMP280;47397;48.194;11.632;2022-12-18T00:27:16;97047.66;;;-5.13
61595;BMP280;47397;48.194;11.632;2022-12-18T00:28:16;97055.16;;;-5.12
61595;BMP280;47397;48.194;11.632;2022-12-18T00:29:17;97055.00;;;-5.29
61595;BMP280;47397;48.194;11.632;2022-12-18T00:30:17;97058.75;;;-5.36
61595;BMP280;47397;48.194;11.632;2022-12-18T00:31:20;97048.94;;;-5.35
61595;BMP280;47397;48.194;11.632;2022-12-18T00:32:20;97061.06;;;-5.39
61595;BMP280;47397;48.194;11.632;2022-12-18T00:33:21;97058.84;;;-5.20
61595;BMP280;47397;48.194;11.632;2022-12-18T00:34:21;97063.38;;;-5.42
61595;BMP280;47397;48.194;11.632;2022-12-18T00:35:22;97061.34;;;-5.20
61595;BMP280;47397;48.194;11.632;2022-12-18T00:36:24;97070.38;;;-5.35
61595;BMP280;47397;48.194;11.632;2022-12-18T00:37:24;97069.53;;;-5.50
61595;BMP280;47397;48.194;11.632;2022-12-18T00:38:25;97066.69;;;-5.27
61595;BMP280;47397;48.194;11.632;2022-12-18T00:39:25;97079.94;;;-5.41
61595;BMP280;47397;48.194;11.632;2022-12-18T00:40:26;97076.88;;;-5.37
61595;BMP280;47397;48.194;11.632;2022-12-18T00:41:28;97082.06;;;-5.32
61595;BMP280;47397;48.194;11.632;2022-12-18T00:42:28;97082.50;;;-5.25
61595;BMP280;47397;48.194;11.632;2022-12-18T00:43:29;97085.16;;;-5.37
61595;BMP280;47397;48.194;11.632;2022-12-18T00:44:29;97083.19;;;-5.42
61595;BMP280;47397;48.194;11.632;2022-12-18T00:45:30;97089.09;;;-5.40
61595;BMP280;47397;48.194;11.632;2022-12-18T00:46:31;97090.81;;;-5.39
61595;BMP280;47397;48.194;11.632;2022-12-18T00:47:31;97092.25;;;-5.28
61595;BMP280;47397;48.194;11.632;2022-12-18T00:48:32;97078.25;;;-5.13
61595;BMP280;47397;48.194;11.632;2022-12-18T00:49:33;97085.94;;;-5.52
61595;BMP280;47397;48.194;11.632;2022-12-18T00:50:33;97092.16;;;-5.29
61595;BMP280;47397;48.194;11.632;2022-12-18T00:51:33;97074.72;;;-5.01
61595;BMP280;47397;48.194;11.632;2022-12-18T00:52:34;97079.94;;;-5.26
61595;BMP280;47397;48.194;11.632;2022-12-18T00:53:34;97086.84;;;-5.21
61595;BMP280;47397;48.194;11.632;2022-12-18T00:54:35;97086.94;;;-5.05
61595;BMP280;47397;48.194;11.632;2022-12-18T00:55:37;97085.59;;;-5.14
61595;BMP280;47397;48.194;11.632;2022-12-18T00:56:39;97096.59;;;-5.24
61595;BMP280;47397;48.194;11.632;2022-12-18T00:57:40;97093.09;;;-4.98
61595;BMP280;47397;48.194;11.632;2022-12-18T00:58:40;97088.31;;;-4.95
61595;BMP280;47397;48.194;11.632;2022-12-18T00:59:40;97092.19;;;-5.15
61595;BMP280;47397;48.194;11.632;2022-12-18T01:00:41;97086.53;;;-5.12
61595;BMP280;47397;48.194;11.632;2022-12-18T01:01:42;97090.03;;;-5.09
61595;BMP280;47397;48.194;11.632;2022-12-18T01:02:42;97098.06;;;-5.13
61595;BMP280;47397;48.194;11.632;2022-12-18T01:03:43;97101.25;;;-5.15
61595;BMP280;47397;48.194;11.632;2022-12-18T01:04:43;97096.97;;;-5.18
61595;BMP280;47397;48.194;11.632;2022-12-18T01:05:43;97080.66;;;-5.14
61595;BMP280;47397;48.194;11.632;2022-12-18T01:06:44;97090.47;;;-5.16
61595;BMP280;47397;48.194;11.632;2022-12-18T01:07:44;97083.38;;;-5.10
61595;BMP280;47397;48.194;11.632;2022-12-18T01:08:45;97082.00;;;-5.05
61595;BMP280;47397;48.194;11.632;2022-12-18T01:09:45;97082.75;;;-5.06
61595;BMP280;47397;48.194;11.632;2022-12-18T01:10:46;97087.31;;;-5.13
61595;BMP280;47397;48.194;11.632;2022-12-18T01:11:47;97094.72;;;-5.28
61595;BMP280;47397;48.194;11.632;2022-12-18T01:12:48;97093.63;;;-5.33
61595;BMP280;47397;48.194;11.632;2022-12-18T01:13:49;97088.91;;;-5.43
61595;BMP280;47397;48.194;11.632;2022-12-18T01:14:49;97097.81;;;-5.32
61595;BMP280;47397;48.194;11.632;2022-12-18T01:15:50;97090.47;;;-5.16
61595;BMP280;47397;48.194;11.632;2022-12-18T01:16:50;97088.75;;;-5.02
61595;BMP280;47397;48.194;11.632;2022-12-18T01:17:52;97089.75;;;-4.98
61595;BMP280;47397;48.194;11.632;2022-12-18T01:18:53;97091.19;;;-4.87
61595;BMP280;47397;48.194;11.632;2022-12-18T01:19:53;97093.44;;;-5.07
61595;BMP280;47397;48.194;11.632;2022-12-18T01:20:54;97097.94;;;-4.85
61595;BMP280;47397;48.194;11.632;2022-12-18T01:21:54;97096.50;;;-4.81
61595;BMP280;47397;48.194;11.632;2022-12-18T01:22:55;97110.13;;;-5.04
61595;BMP280;47397;48.194;11.632;2022-12-18T01:23:56;97115.75;;;-5.07
61595;BMP280;47397;48.194;11.632;2022-12-18T01:24:56;97111.63;;;-4.91
61595;BMP280;47397;48.194;11.632;2022-12-18T01:25:57;97120.88;;;-5.04
61595;BMP280;47397;48.194;11.632;2022-12-18T01:26:58;97114.56;;;-4.98
61595;BMP280;47397;48.194;11.632;2022-12-18T01:27:59;97119.34;;;-5.01
61595;BMP280;47397;48.194;11.632;2022-12-18T01:28:59;97129.19;;;-5.03
61595;BMP280;47397;48.194;11.632;2022-12-18T01:29:59;97130.22;;;-5.14
61595;BMP280;47397;48.194;11.632;2022-12-18T01:31:10;97127.03;;;-4.97
61595;BMP280;47397;48.194;11.632;2022-12-18T01:32:10;97123.38;;;-5.04
61595;BMP280;47397;48.194;11.632;2022-12-18T01:33:11;97130.72;;;-5.05
61595;BMP280;47397;48.194;11.632;2022-12-18T01:34:11;97122.75;;;-4.99
61595;BMP280;47397;48.194;11.632;2022-12-18T01:35:11;97124.97;;;-4.75
61595;BMP280;47397;48.194;11.632;2022-12-18T01:36:17;97137.22;;;-5.07
61595;BMP280;47397;48.194;11.632;2022-12-18T01:37:18;97139.19;;;-5.01
61595;BMP280;47397;48.194;11.632;2022-12-18T01:38:18;97141.81;;;-4.84
61595;BMP280;47397;48.194;11.632;2022-12-18T01:39:19;97139.34;;;-4.69
61595;BMP280;47397;48.194;11.632;2022-12-18T01:40:19;97147.53;;;-4.85
61595;BMP280;47397;48.194;11.632;2022-12-18T01:41:22;97147.13;;;-4.78
61595;BMP280;47397;48.194;11.632;2022-12-18T01:42:24;97150.31;;;-4.80
61595;BMP280;47397;48.194;11.632;2022-12-18T01:43:43;97161.84;;;-5.10
61595;BMP280;47397;48.194;11.632;2022-12-18T01:44:59;97162.88;;;-4.77
61595;BMP280;47397;48.194;11.632;2022-12-18T01:45:59;97151.56;;;-4.72
61595;BMP280;47397;48.194;11.632;2022-12-18T01:47:00;97152.06;;;-4.63
61595;BMP280;47397;48.194;11.632;2022-12-18T01:48:02;97146.97;;;-4.81
61595;BMP280;47397;48.194;11.632;2022-12-18T01:49:03;97145.25;;;-4.96
61595;BMP280;47397;48.194;11.632;2022-12-18T01:50:07;97140.44;;;-4.93
61595;BMP280;47397;48.194;11.632;2022-12-18T01:51:09;97135.34;;;-4.82
61595;BMP280;47397;48.194;11.632;2022-12-18T01:52:10;97134.81;;;-4.76
61595;BMP280;47397;48.194;11.632;2022-12-18T01:53:13;97137.47;;;-5.03
61595;BMP280;47397;48.194;11.632;2022-12-18T01:54:14;97142.00;;;-5.10
61595;BMP280;47397;48.194;11.632;2022-12-18T01:55:16;97150.53;;;-4.90
61595;BMP280;47397;48.194;11.632;2022-12-18T01:56:20;97148.41;;;-5.14
61595;BMP280;47397;48.194;11.632;2022-12-18T01:57:22;97150.53;;;-4.90
61595;BMP280;47397;48.194;11.632;2022-12-18T01:58:29;97154.84;;;-5.17
61595;BMP280;47397;48.194;11.632;2022-12-18T01:59:31;97158.06;;;-5.04
61595;BMP280;47397;48.194;11.632;2022-12-18T02:00:32;97160.53;;;-4.89
61595;BMP280;47397;48.194;11.632;2022-12-18T02:01:33;97161.00;;;-4.81
61595;BMP280;47397;48.194;11.632;2022-12-18T02:02:34;97155.00;;;-4.99
61595;BMP280;47397;48.194;11.632;2022-12-18T02:03:34;97147.47;;;-5.16
61595;BMP280;47397;48.194;11.632;2022-12-18T02:04:35;97143.78;;;-5.22
61595;BMP280;47397;48.194;11.632;2022-12-18T02:05:43;97139.84;;;-5.33
61595;BMP280;47397;48.194;11.632;2022-12-18T02:06:45;97129.75;;;-4.92
61595;BMP280;47397;48.194;11.632;2022-12-18T02:07:55;97132.34;;;-5.20
61595;BMP280;47397;48.194;11.632;2022-12-18T02:09:08;97127.91;;;-5.11
61595;BMP280;47397;48.194;11.632;2022-12-18T02:10:15;97133.19;;;-5.35
61595;BMP280;47397;48.194;11.632;2022-12-18T02:11:24;97135.16;;;-5.14
61595;BMP280;47397;48.194;11.632;2022-12-18T02:12:34;97129.19;;;-5.18
61595;BMP280;47397;48.194;11.632;2022-12-18T02:13:45;97132.34;;;-4.91
61595;BMP280;47397;48.194;11.632;2022-12-18T02:14:54;97127.97;;;-4.80
61595;BMP280;47397;48.194;11.632;2022-12-18T02:15:59;97124.03;;;-4.77
61595;BMP280;47397;48.194;11.632;2022-12-18T02:17:03;97125.22;;;-4.85
61595;BMP280;47397;48.194;11.632;2022-12-18T02:18:07;97123.44;;;-4.87
61595;BMP280;47397;48.194;11.632;2022-12-18T02:19:18;97129.53;;;-4.82
61595;BMP280;47397;48.194;11.632;2022-12-18T02:20:23;97135.84;;;-4.87
61595;BMP280;47397;48.194;11.632;2022-12-18T02:21:32;97129.69;;;-4.79
61595;BMP280;47397;48.194;11.632;2022-12-18T02:22:43;97129.84;;;-4.76
61595;BMP280;47397;48.194;11.632;2022-12-18T02:23:53;97127.22;;;-4.79
61595;BMP280;47397;48.194;11.632;2022-12-18T02:25:01;97129.56;;;-4.66
61595;BMP280;47397;48.194;11.632;2022-12-18T02:26:12;97127.13;;;-4.81
61595;BMP280;47397;48.194;11.632;2022-12-18T02:27:14;97132.59;;;-5.01
61595;BMP280;47397;48.194;11.632;2022-12-18T02:28:16;97132.09;;;-4.95
61595;BMP280;47397;48.194;11.632;2022-12-18T02:29:22;97119.06;;;-4.91
61595;BMP280;47397;48.194;11.632;2022-12-18T02:30:24;97121.56;;;-4.91
61595;BMP280;47397;48.194;11.632;2022-12-18T02:31:29;97123.72;;;-5.12
61595;BMP280;47397;48.194;11.632;2022-12-18T02:32:34;97117.44;;;-4.91
61595;BMP280;47397;48.194;11.632;2022-12-18T02:33:35;97118.88;;;-4.65
61595;BMP280;47397;48.194;11.632;2022-12-18T02:34:38;97119.41;;;-4.85
61595;BMP280;47397;48.194;11.632;2022-12-18T02:35:40;97114.88;;;-4.92
61595;BMP280;47397;48.194;11.632;2022-12-18T02:36:43;97120.72;;;-5.07
61595;BMP280;47397;48.194;11.632;2022-12-18T02:37:45;97120.63;;;-5.23
61595;BMP280;47397;48.194;11.632;2022-12-18T02:38:47;97113.94;;;-4.94
61595;BMP280;47397;48.194;11.632;2022-12-18T02:39:49;97118.38;;;-4.89
61595;BMP280;47397;48.194;11.632;2022-12-18T02:40:50;97126.34;;;-4.94
61595;BMP280;47397;48.194;11.632;2022-12-18T02:41:53;97113.25;;;-4.92
61595;BMP280;47397;48.194;11.632;2022-12-18T02:42:53;97118.22;;;-4.92
61595;BMP280;47397;48.194;11.632;2022-12-18T02:43:56;97120.63;;;-4.93
61595;BMP280;47397;48.194;11.632;2022-12-18T02:44:57;97127.28;;;-4.92
61595;BMP280;47397;48.194;11.632;2022-12-18T02:45:58;97126.19;;;-4.83
61595;BMP280;47397;48.194;11.632;2022-12-18T02:46:59;97125.06;;;-4.73
61595;BMP280;47397;48.194;11.632;2022-12-18T02:48:00;97120.44;;;-4.67
61595;BMP280;47397;48.194;11.632;2022-12-18T02:49:16;97123.53;;;-4.71
61595;BMP280;47397;48.194;11.632;2022-12-18T02:50:25;97118.84;;;-4.81
61595;BMP280;47397;48.194;11.632;2022-12-18T02:51:30;97118.63;;;-4.84
61595;BMP280;47397;48.194;11.632;2022-12-18T02:52:36;97115.38;;;-4.83
61595;BMP280;47397;48.194;11.632;2022-12-18T02:53:43;97125.13;;;-4.86
61595;BMP280;47397;48.194;11.632;2022-12-18T02:54:55;97126.59;;;-4.90
61595;BMP280;47397;48.194;11.632;2022-12-18T02:56:02;97124.44;;;-4.84
61595;BMP280;47397;48.194;11.632;2022-12-18T02:57:13;97109.06;;;-4.78
61595;BMP280;47397;48.194;11.632;2022-12-18T02:58:16;97124.63;;;-4.95
61595;BMP280;47397;48.194;11.632;2022-12-18T02:59:21;97123.78;;;-4.96
61595;BMP280;47397;48.194;11.632;2022-12-18T03:00:29;97129.00;;;-5.06
61595;BMP280;47397;48.194;11.632;2022-12-18T03:01:35;97126.09;;;-4.99
61595;BMP280;47397;48.194;11.632;2022-12-18T03:02:41;97124.56;;;-4.97
61595;BMP280;47397;48.194;11.632;2022-12-18T03:03:48;97134.66;;;-4.79
61595;BMP280;47397;48.194;11.632;2022-12-18T03:04:56;97126.41;;;-4.63
61595;BMP280;47397;48.194;11.632;2022-12-18T03:06:02;97129.31;;;-4.85
61595;BMP280;47397;48.194;11.632;2022-12-18T03:07:07;97128.66;;;-4.83
61595;BMP280;47397;48.194;11.632;2022-12-18T03:08:13;97125.81;;;-4.89
61595;BMP280;47397;48.194;11.632;2022-12-18T03:09:18;97122.50;;;-4.75
61595;BMP280;47397;48.194;11.632;2022-12-18T03:10:25;97125.91;;;-4.73
61595;BMP280;47397;48.194;11.632;2022-12-18T03:11:30;97119.16;;;-4.75
61595;BMP280;47397;48.194;11.632;2022-12-18T03:12:37;97119.34;;;-5.01
61595;BMP280;47397;48.194;11.632;2022-12-18T03:13:44;97124.31;;;-5.16
61595;BMP280;47397;48.194;11.632;2022-12-18T03:14:49;97114.81;;;-4.94
61595;BMP280;47397;48.194;11.632;2022-12-18T03:15:53;97114.88;;;-4.92
61595;BMP280;47397;48.194;11.632;2022-12-18T03:16:58;97119.59;;;-4.97
61595;BMP280;47397;48.194;11.632;2022-12-18T03:18:04;97118.84;;;-5.11
61595;BMP280;47397;48.194;11.632;2022-12-18T03:19:08;97128.66;;;-4.97
61595;BMP280;47397;48.194;11.632;2022-12-18T03:20:14;97120.47;;;-4.82
61595;BMP280;47397;48.194;11.632;2022-12-18T03:21:16;97113.03;;;-4.82
61595;BMP280;47397;48.194;11.632;2022-12-18T03:22:19;97128.69;;;-5.12
61595;BMP280;47397;48.194;11.632;2022-12-18T03:23:23;97118.69;;;-5.14
61595;BMP280;47397;48.194;11.632;2022-12-18T03:24:26;97122.63;;;-5.17
61595;BMP280;47397;48.194;11.632;2022-12-18T03:25:28;97121.13;;;-4.99
61595;BMP280;47397;48.194;11.632;2022-12-18T03:26:31;97120.72;;;-5.07
61595;BMP280;47397;48.194;11.632;2022-12-18T03:27:35;97110.38;;;-5.14
61595;BMP280;47397;48.194;11.632;2022-12-18T03:28:38;97117.28;;;-4.94
61595;BMP280;47397;48.194;11.632;2022-12-18T03:29:43;97116.25;;;-4.97
61595;BMP280;47397;48.194;11.632;2022-12-18T03:30:47;97110.97;;;-5.04
61595;BMP280;47397;48.194;11.632;2022-12-18T03:31:55;97110.88;;;-4.90
61595;BMP280;47397;48.194;11.632;2022-12-18T03:33:01;97114.81;;;-4.94
61595;BMP280;47397;48.194;11.632;2022-12-18T03:34:09;97111.56;;;-4.78
61595;BMP280;47397;48.194;11.632;2022-12-18T03:35:14;97112.25;;;-4.81
61595;BMP280;47397;48.194;11.632;2022-12-18T03:36:15;97112.97;;;-4.67
61595;BMP280;47397;48.194;11.632;2022-12-18T03:37:16;97114.25;;;-4.59
61595;BMP280;47397;48.194;11.632;2022-12-18T03:38:16;97117.88;;;-4.83
61595;BMP280;47397;48.194;11.632;2022-12-18T03:39:17;97112.06;;;-4.69
61595;BMP280;47397;48.194;11.632;2022-12-18T03:40:19;97116.59;;;-4.91
61595;BMP280;47397;48.194;11.632;2022-12-18T03:41:31;97127.38;;;-5.06
61595;BMP280;47397;48.194;11.632;2022-12-18T03:42:39;97122.34;;;-4.78
61595;BMP280;47397;48.194;11.632;2022-12-18T03:43:49;97121.97;;;-4.69
61595;BMP280;47397;48.194;11.632;2022-12-18T03:44:55;97118.22;;;-4.77
61595;BMP280;47397;48.194;11.632;2022-12-18T03:46:02;97131.16;;;-5.12
61595;BMP280;47397;48.194;11.632;2022-12-18T03:47:07;97132.41;;;-4.89
61595;BMP280;47397;48.194;11.632;2022-12-18T03:48:15;97126.00;;;-4.71
61595;BMP280;47397;48.194;11.632;2022-12-18T03:49:23;97132.19;;;-4.79
61595;BMP280;47397;48.194;11.632;2022-12-18T03:50:32;97128.16;;;-4.77
61595;BMP280;47397;48.194;11.632;2022-12-18T03:51:39;97129.16;;;-4.74
61595;BMP280;47397;48.194;11.632;2022-12-18T03:52:45;97134.38;;;-4.69
61595;BMP280;47397;48.194;11.632;2022-12-18T03:53:52;97128.81;;;-4.65
61595;BMP280;47397;48.194;11.632;2022-12-18T03:54:55;97123.84;;;-4.65
61595;BMP280;47397;48.194;11.632;2022-12-18T03:55:59;97120.06;;;-4.58
61595;BMP280;47397;48.194;11.632;2022-12-18T03:57:05;97116.88;;;-4.56
61595;BMP280;47397;48.194;11.632;2022-12-18T03:58:09;97120.59;;;-4.64
61595;BMP280;47397;48.194;11.632;2022-12-18T03:59:13;97116.72;;;-4.59
61595;BMP280;47397;48.194;11.632;2022-12-18T04:00:16;97119.53;;;-4.53
61595;BMP280;47397;48.194;11.632;2022-12-18T04:01:22;97115.16;;;-4.42
61595;BMP280;47397;48.194;11.632;2022-12-18T04:02:24;97123.13;;;-4.48
61595;BMP280;47397;48.194;11.632;2022-12-18T04:03:25;97113.91;;;-4.65
61595;BMP280;47397;48.194;11.632;2022-12-18T04:04:28;97116.25;;;-4.68
61595;BMP280;47397;48.194;11.632;2022-12-18T04:05:30;97123.34;;;-4.74
61595;BMP280;47397;48.194;11.632;2022-12-18T04:06:34;97125.44;;;-4.51
61595;BMP280;47397;48.194;11.632;2022-12-18T04:07:36;97134.47;;;-4.67
61595;BMP280;47397;48.194;11.632;2022-12-18T04:08:36;97127.91;;;-4.51
61595;BMP280;47397;48.194;11.632;2022-12-18T04:09:38;97132.63;;;-4.41
61595;BMP280;47397;48.194;11.632;2022-12-18T04:10:40;97136.28;;;-5.09
61595;BMP280;47397;48.194;11.632;2022-12-18T04:11:40;97133.63;;;-4.97
61595;BMP280;47397;48.194;11.632;2022-12-18T04:12:41;97129.53;;;-4.82
61595;BMP280;47397;48.194;11.632;2022-12-18T04:13:43;97131.03;;;-4.69
61595;BMP280;47397;48.194;11.632;2022-12-18T04:14:44;97129.81;;;-4.61
61595;BMP280;47397;48.194;11.632;2022-12-18T04:15:45;97128.22;;;-4.76
61595;BMP280;47397;48.194;11.632;2022-12-18T04:16:45;97130.38;;;-4.51
61595;BMP280;47397;48.194;11.632;2022-12-18T04:17:48;97127.06;;;-4.51
61595;BMP280;47397;48.194;11.632;2022-12-18T04:18:48;97124.50;;;-4.53
61595;BMP280;47397;48.194;11.632;2022-12-18T04:19:49;97123.38;;;-4.43
61595;BMP280;47397;48.194;11.632;2022-12-18T04:20:49;97122.34;;;-4.47
61595;BMP280;47397;48.194;11.632;2022-12-18T04:21:50;97116.59;;;-4.91
61595;BMP280;47397;48.194;11.632;2022-12-18T04:22:50;97120.44;;;-4.96
61595;BMP280;47397;48.194;11.632;2022-12-18T04:23:51;97113.75;;;-4.68
61595;BMP280;47397;48.194;11.632;2022-12-18T04:24:51;97113.34;;;-4.76
61595;BMP280;47397;48.194;11.632;2022-12-18T04:25:51;97114.38;;;-5.01
61595;BMP280;47397;48.194;11.632;2022-12-18T04:26:52;97123.59;;;-4.84
61595;BMP280;47397;48.194;11.632;2022-12-18T04:27:52;97122.50;;;-4.75
61595;BMP280;47397;48.194;11.632;2022-12-18T04:28:54;97132.84;;;-4.96
61595;BMP280;47397;48.194;11.632;2022-12-18T04:29:54;97130.88;;;-4.87
61595;BMP280;47397;48.194;11.632;2022-12-18T04:30:55;97136.25;;;-4.65
61595;BMP280;47397;48.194;11.632;2022-12-18T04:31:55;97140.41;;;-4.49
61595;BMP280;47397;48.194;11.632;2022-12-18T04:32:56;97132.19;;;-4.48
61595;BMP280;47397;48.194;11.632;2022-12-18T04:33:56;97138.13;;;-4.61
61595;BMP280;47397;48.194;11.632;2022-12-18T04:34:56;97144.88;;;-4.58
61595;BMP280;47397;48.194;11.632;2022-12-18T04:35:57;97142.75;;;-4.67
61595;BMP280;47397;48.194;11.632;2022-12-18T04:36:57;97136.94;;;-4.67
61595;BMP280;47397;48.194;11.632;2022-12-18T04:37:58;97144.31;;;-4.98
61595;BMP280;47397;48.194;11.632;2022-12-18T04:38:58;97140.44;;;-4.93
61595;BMP280;47397;48.194;11.632;2022-12-18T04:39:59;97137.88;;;-4.65
61595;BMP280;47397;48.194;11.632;2022-12-18T04:40:59;97144.41;;;-4.97
61595;BMP280;47397;48.194;11.632;2022-12-18T04:42:00;97135.75;;;-4.89
61595;BMP280;47397;48.194;11.632;2022-12-18T04:43:00;97130.38;;;-4.82
61595;BMP280;47397;48.194;11.632;2022-12-18T04:44:03;97136.28;;;-4.49
61595;BMP280;47397;48.194;11.632;2022-12-18T04:45:04;97141.88;;;-4.53
61595;BMP280;47397;48.194;11.632;2022-12-18T04:46:06;97140.03;;;-4.72
61595;BMP280;47397;48.194;11.632;2022-12-18T04:47:06;97141.00;;;-4.53
61595;BMP280;47397;48.194;11.632;2022-12-18T04:48:07;97152.41;;;-4.57
61595;BMP280;47397;48.194;11.632;2022-12-18T04:49:07;97148.44;;;-4.53
61595;BMP280;47397;48.194;11.632;2022-12-18T04:50:08;97152.69;;;-4.67
61595;BMP280;47397;48.194;11.632;2022-12-18T04:51:08;97160.22;;;-4.80
61595;BMP280;47397;48.194;11.632;2022-12-18T04:52:09;97154.63;;;-4.61
61595;BMP280;47397;48.194;11.632;2022-12-18T04:53:09;97149.78;;;-4.75
61595;BMP280;47397;48.194;11.632;2022-12-18T04:54:09;97149.16;;;-4.56
61595;BMP280;47397;48.194;11.632;2022-12-18T04:55:10;97145.97;;;-4.53
61595;BMP280;47397;48.194;11.632;2022-12-18T04:56:12;97150.72;;;-4.73
61595;BMP280;47397;48.194;11.632;2022-12-18T04:57:13;97144.91;;;-4.73
61595;BMP280;47397;48.194;11.632;2022-12-18T04:58:13;97153.47;;;-4.83
61595;BMP280;47397;48.194;11.632;2022-12-18T04:59:15;97156.53;;;-4.87
61595;BMP280;47397;48.194;11.632;2022-12-18T05:00:15;97155.00;;;-4.70
61595;BMP280;47397;48.194;11.632;2022-12-18T05:01:17;97157.38;;;-4.72
61595;BMP280;47397;48.194;11.632;2022-12-18T05:02:18;97148.97;;;-4.59
61595;BMP280;47397;48.194;11.632;2022-12-18T05:03:18;97160.56;;;-4.74
61595;BMP280;47397;48.194;11.632;2022-12-18T05:04:18;97158.28;;;-4.55
61595;BMP280;47397;48.194;11.632;2022-12-18T05:05:19;97157.94;;;-4.46
61595;BMP280;47397;48.194;11.632;2022-12-18T05:06:19;97166.75;;;-4.36
61595;BMP280;47397;48.194;11.632;2022-12-18T05:07:20;97164.19;;;-4.53
61595;BMP280;47397;48.194;11.632;2022-12-18T05:08:20;97161.91;;;-4.64
61595;BMP280;47397;48.194;11.632;2022-12-18T05:09:21;97161.09;;;-4.49
61595;BMP280;47397;48.194;11.632;2022-12-18T05:10:21;97154.28;;;-4.53
61595;BMP280;47397;48.194;11.632;2022-12-18T05:11:21;97158.25;;;-4.71
61595;BMP280;47397;48.194;11.632;2022-12-18T05:12:25;97164.22;;;-4.67
61595;BMP280;47397;48.194;11.632;2022-12-18T05:13:26;97166.59;;;-4.54
61595;BMP280;47397;48.194;11.632;2022-12-18T05:14:28;97169.31;;;-4.50
61595;BMP280;47397;48.194;11.632;2022-12-18T05:15:28;97171.25;;;-4.29
61595;BMP280;47397;48.194;11.632;2022-12-18T05:16:29;97176.75;;;-4.35
61595;BMP280;47397;48.194;11.632;2022-12-18T05:17:29;97174.13;;;-4.53
61595;BMP280;47397;48.194;11.632;2022-12-18T05:18:30;97172.50;;;-4.37
61595;BMP280;47397;48.194;11.632;2022-12-18T05:19:31;97174.19;;;-4.51
61595;BMP280;47397;48.194;11.632;2022-12-18T05:20:31;97169.06;;;-4.39
61595;BMP280;47397;48.194;11.632;2022-12-18T05:21:32;97156.13;;;-4.49
61595;BMP280;47397;48.194;11.632;2022-12-18T05:22:32;97148.38;;;-4.55
61595;BMP280;47397;48.194;11.632;2022-12-18T05:23:36;97151.53;;;-4.43
61595;BMP280;47397;48.194;11.632;2022-12-18T05:24:36;97149.06;;;-4.43
61595;BMP280;47397;48.194;11.632;2022-12-18T05:25:37;97139.13;;;-4.43
61595;BMP280;47397;48.194;11.632;2022-12-18T05:26:37;97140.16;;;-4.39
61595;BMP280;47397;48.194;11.632;2022-12-18T05:27:37;97144.81;;;-4.29
61595;BMP280;47397;48.194;11.632;2022-12-18T05:28:38;97149.91;;;-4.42
61595;BMP280;47397;48.194;11.632;2022-12-18T05:29:40;97151.00;;;-4.52
61595;BMP280;47397;48.194;11.632;2022-12-18T05:30:47;97154.72;;;-4.45
61595;BMP280;47397;48.194;11.632;2022-12-18T05:31:47;97164.72;;;-4.44
61595;BMP280;47397;48.194;11.632;2022-12-18T05:32:48;97169.59;;;-4.45
61595;BMP280;47397;48.194;11.632;2022-12-18T05:33:48;97180.47;;;-4.58
61595;BMP280;47397;48.194;11.632;2022-12-18T05:34:49;97177.22;;;-4.57
61595;BMP280;47397;48.194;11.632;2022-12-18T05:35:50;97189.84;;;-4.52
61595;BMP280;47397;48.194;11.632;2022-12-18T05:36:50;97182.34;;;-4.54
61595;BMP280;47397;48.194;11.632;2022-12-18T05:37:51;97193.63;;;-4.59
61595;BMP280;47397;48.194;11.632;2022-12-18T05:38:51;97185.44;;;-4.73
61595;BMP280;47397;48.194;11.632;2022-12-18T05:39:51;97181.16;;;-4.60
61595;BMP280;47397;48.194;11.632;2022-12-18T05:40:53;97180.53;;;-4.56
61595;BMP280;47397;48.194;11.632;2022-12-18T05:41:53;97177.13;;;-4.44
61595;BMP280;47397;48.194;11.632;2022-12-18T05:42:54;97175.16;;;-4.64
61595;BMP280;47397;48.194;11.632;2022-12-18T05:43:54;97173.78;;;-4.59
61595;BMP280;47397;48.194;11.632;2022-12-18T05:44:56;97165.91;;;-4.52
61595;BMP280;47397;48.194;11.632;2022-12-18T05:45:56;97180.66;;;-4.69
61595;BMP280;47397;48.194;11.632;2022-12-18T05:46:57;97171.06;;;-4.63
61595;BMP280;47397;48.194;11.632;2022-12-18T05:47:57;97161.53;;;-4.41
61595;BMP280;47397;48.194;11.632;2022-12-18T05:48:59;97166.84;;;-4.35
61595;BMP280;47397;48.194;11.632;2022-12-18T05:49:59;97166.59;;;-4.39
61595;BMP280;47397;48.194;11.632;2022-12-18T05:51:04;97167.59;;;-4.36
61595;BMP280;47397;48.194;11.632;2022-12-18T05:52:05;97164.34;;;-4.50
61595;BMP280;47397;48.194;11.632;2022-12-18T05:53:06;97171.06;;;-4.63
61595;BMP280;47397;48.194;11.632;2022-12-18T05:54:06;97183.19;;;-4.38
61595;BMP280;47397;48.194;11.632;2022-12-18T05:55:07;97184.28;;;-4.48